createdAt,value
2023-04-07T00:02:07.028Z,12.11
2023-04-07T00:14:07.101Z,12.10
2023-04-07T00:26:07.004Z,12.09
2023-04-07T00:38:06.992Z,12.07
2023-04-07T00:50:07.047Z,12.07
2023-04-07T01:02:07.237Z,12.06
2023-04-07T01:14:07.006Z,12.05
2023-04-07T01:26:07.010Z,12.03
2023-04-07T01:38:07.082Z,12.01
2023-04-07T01:50:07.009Z,12.01
2023-04-07T02:02:07.105Z,12.00
2023-04-07T02:14:07.060Z,11.99
2023-04-07T02:26:07.109Z,11.98
2023-04-07T02:38:06.982Z,11.96
2023-04-07T02:50:06.983Z,11.96
2023-04-07T03:02:07.276Z,11.95
2023-04-07T03:14:07.098Z,11.93
2023-04-07T03:26:07.086Z,11.93
2023-04-07T03:38:06.976Z,11.91
2023-04-07T03:50:06.977Z,11.91
2023-04-07T04:02:07.126Z,11.88
2023-04-07T04:14:07.029Z,11.88
2023-04-07T04:26:07.077Z,11.87
2023-04-07T04:38:07.065Z,11.86
2023-04-07T04:50:07.006Z,11.85
2023-04-07T05:02:07.147Z,11.83
2023-04-07T05:14:07.089Z,11.83
2023-04-07T05:26:07.084Z,11.82
2023-04-07T05:38:06.989Z,11.81
2023-04-07T05:50:06.991Z,11.81
2023-04-07T06:02:07.094Z,11.80
2023-04-07T06:14:07.065Z,11.79
2023-04-07T06:26:07.112Z,11.78
2023-04-07T06:38:07.099Z,11.78
2023-04-07T06:50:06.986Z,11.78
2023-04-07T07:02:07.186Z,11.79
2023-04-07T07:14:07.072Z,11.79
2023-04-07T07:26:07.479Z,11.79
2023-04-07T07:38:07.001Z,11.79
2023-04-07T07:50:07.014Z,11.79
2023-04-07T08:02:07.010Z,11.78
2023-04-07T08:14:08.734Z,11.77
2023-04-07T08:26:07.042Z,11.77
2023-04-07T08:38:06.988Z,11.76
2023-04-07T08:50:06.984Z,11.76
2023-04-07T09:02:07.134Z,11.74
2023-04-07T09:14:07.035Z,11.77
2023-04-07T09:26:06.985Z,11.77
2023-04-07T09:38:06.981Z,11.82
2023-04-07T09:50:07.266Z,11.86
2023-04-07T10:02:07.260Z,11.87
2023-04-07T10:14:07.080Z,11.94
2023-04-07T10:26:07.088Z,11.92
2023-04-07T10:38:07.059Z,11.99
2023-04-07T10:50:07.008Z,11.96
2023-04-07T11:02:07.118Z,12.00
2023-04-07T11:14:07.104Z,12.06
2023-04-07T11:26:07.071Z,12.03
2023-04-07T11:38:06.991Z,12.08
2023-04-07T11:50:07.083Z,12.07
2023-04-07T12:02:07.122Z,12.13
2023-04-07T12:14:07.097Z,12.13
2023-04-07T12:26:07.048Z,12.17
2023-04-07T12:38:06.993Z,12.18
2023-04-07T12:50:07.004Z,12.18
2023-04-07T13:02:07.184Z,12.20
2023-04-07T13:14:07.069Z,12.24
2023-04-07T13:26:07.062Z,12.27
2023-04-07T13:38:06.982Z,12.33
2023-04-07T13:50:07.105Z,12.37
2023-04-07T14:02:07.092Z,12.42
2023-04-07T14:14:07.107Z,12.49
2023-04-07T14:26:07.058Z,12.51
2023-04-07T14:38:06.992Z,12.60
2023-04-07T14:50:07.169Z,12.60
2023-04-07T15:02:07.150Z,12.62
2023-04-07T15:14:06.995Z,12.58
2023-04-07T15:26:07.069Z,12.59
2023-04-07T15:38:07.001Z,12.58
2023-04-07T15:50:07.033Z,12.58
2023-04-07T16:02:07.041Z,12.58
2023-04-07T16:14:08.954Z,12.57
2023-04-07T16:26:07.066Z,12.57
2023-04-07T16:38:07.001Z,12.55
2023-04-07T16:50:07.064Z,12.55
2023-04-07T17:02:07.122Z,12.54
2023-04-07T17:14:06.989Z,12.51
2023-04-07T17:26:07.087Z,12.52
2023-04-07T17:38:07.025Z,12.50
2023-04-07T17:50:07.093Z,12.47
2023-04-07T18:02:07.107Z,12.48
2023-04-07T18:14:07.053Z,12.46
2023-04-07T18:26:06.974Z,12.45
2023-04-07T18:38:07.079Z,12.43
2023-04-07T18:50:06.995Z,12.42
2023-04-07T19:02:07.093Z,12.40
2023-04-07T19:14:06.996Z,12.39
2023-04-07T19:26:07.081Z,12.38
2023-04-07T19:38:07.061Z,12.37
2023-04-07T19:50:07.011Z,12.36
2023-04-07T20:02:08.021Z,12.35
2023-04-07T20:14:07.035Z,12.33
2023-04-07T20:26:07.066Z,12.31
2023-04-07T20:38:07.073Z,12.31
2023-04-07T20:50:06.993Z,12.29
2023-04-07T21:02:07.205Z,12.28
2023-04-07T21:14:06.977Z,12.27
2023-04-07T21:26:06.978Z,12.26
2023-04-07T21:38:06.976Z,12.23
2023-04-07T21:50:07.380Z,12.24
2023-04-07T22:02:07.101Z,12.23
2023-04-07T22:14:07.017Z,12.21
2023-04-07T22:26:07.007Z,12.20
2023-04-07T22:38:06.990Z,12.19
2023-04-07T22:50:07.063Z,12.17
2023-04-07T23:02:07.263Z,12.17
2023-04-07T23:14:07.019Z,12.15
2023-04-07T23:26:07.005Z,12.15
2023-04-07T23:38:06.980Z,12.13
2023-04-07T23:50:07.100Z,12.12
